Time;durP1;ratioP1;P1;durP2;ratioP2;P2;SDS_P1;SDS_P2;PMS_P1;PMS_P2;Temp;Humidity;BMP_temperature;BMP_pressure;BME280_temperature;BME280_humidity;BME280_pressure;Samples;Min_cycle;Max_cycle;Signal;HPM_P1;HPM_P2
2021/03/16 00:02:13;;;;;;;17.43;2.80;;;;;;;;;;5072233;28;20518;-83
2021/03/16 00:04:38;;;;;;;25.73;3.60;;;;;;;;;;5070879;28;20024;-83
2021/03/16 00:07:04;;;;;;;24.50;2.80;;;;;;;;;;5071890;28;20037;-83
2021/03/16 00:09:30;;;;;;;26.30;2.87;;;;;;;;;;5072349;28;20008;-83
2021/03/16 00:11:55;;;;;;;19.80;1.97;;;;;;;;;;5070786;28;20086;-83
2021/03/16 00:14:20;;;;;;;21.60;2.40;;;;;;;;;;5071884;28;20680;-83
2021/03/16 00:16:45;;;;;;;26.70;3.00;;;;;;;;;;5072116;28;20024;-83
2021/03/16 00:19:11;;;;;;;21.03;2.23;;;;;;;;;;5070683;28;20047;-82
2021/03/16 00:21:36;;;;;;;21.97;2.37;;;;;;;;;;5070851;28;20024;-83
2021/03/16 00:24:01;;;;;;;17.83;2.13;;;;;;;;;;5072078;28;20019;-83
2021/03/16 00:26:26;;;;;;;21.60;2.63;;;;;;;;;;5071399;28;20021;-82
2021/03/16 00:28:51;;;;;;;25.13;2.47;;;;;;;;;;5062833;28;20017;-83
2021/03/16 00:31:17;;;;;;;18.90;2.93;;;;;;;;;;5070422;28;20031;-82
2021/03/16 00:33:42;;;;;;;22.37;2.40;;;;;;;;;;5070655;28;20024;-82
2021/03/16 00:36:07;;;;;;;20.80;3.93;;;;;;;;;;5071893;28;20027;-83
2021/03/16 00:38:32;;;;;;;29.37;4.40;;;;;;;;;;5071689;28;20019;-83
2021/03/16 00:40:57;;;;;;;18.00;2.30;;;;;;;;;;5070373;28;20015;-83
2021/03/16 00:43:23;;;;;;;23.43;2.50;;;;;;;;;;5071750;28;20016;-82
2021/03/16 00:45:48;;;;;;;33.07;2.93;;;;;;;;;;5071429;28;20444;-82
2021/03/16 00:48:14;;;;;;;15.57;1.93;;;;;;;;;;5071327;28;20098;-83
2021/03/16 00:50:39;;;;;;;17.77;1.67;;;;;;;;;;5070217;28;20059;-83
2021/03/16 00:53:04;;;;;;;20.80;2.43;;;;;;;;;;5070584;28;20048;-82
2021/03/16 00:55:30;;;;;;;28.13;3.23;;;;;;;;;;5070382;28;20025;-83
2021/03/16 00:57:55;;;;;;;15.87;2.20;;;;;;;;;;5071690;28;20218;-83
2021/03/16 01:00:20;;;;;;;21.23;3.10;;;;;;;;;;5071608;28;20513;-82
2021/03/16 01:02:45;;;;;;;22.07;2.80;;;;;;;;;;5070553;28;20059;-83
2021/03/16 01:05:11;;;;;;;14.97;2.87;;;;;;;;;;5071691;28;20475;-83
2021/03/16 01:07:36;;;;;;;25.17;2.40;;;;;;;;;;5070096;28;20024;-83
2021/03/16 01:10:02;;;;;;;18.60;2.40;;;;;;;;;;5070131;28;20017;-83
2021/03/16 01:12:28;;;;;;;20.80;2.60;;;;;;;;;;5070035;28;20028;-82
2021/03/16 01:14:53;;;;;;;16.10;2.70;;;;;;;;;;5070153;28;20028;-83
2021/03/16 01:17:18;;;;;;;33.97;2.73;;;;;;;;;;5069718;28;20446;-82
2021/03/16 01:19:43;;;;;;;25.37;2.83;;;;;;;;;;5070125;28;20008;-83
2021/03/16 01:22:08;;;;;;;18.00;1.93;;;;;;;;;;5070234;28;20017;-82
2021/03/16 01:24:34;;;;;;;18.87;2.20;;;;;;;;;;5070151;28;20046;-83
2021/03/16 01:26:59;;;;;;;30.27;2.90;;;;;;;;;;5070390;28;20017;-83
2021/03/16 01:29:24;;;;;;;23.73;2.70;;;;;;;;;;5073759;28;20839;-83
2021/03/16 01:31:49;;;;;;;25.13;2.03;;;;;;;;;;5074779;28;20035;-83
2021/03/16 01:34:14;;;;;;;25.03;3.13;;;;;;;;;;5073651;28;20020;-83
2021/03/16 01:36:39;;;;;;;19.10;1.87;;;;;;;;;;5072982;28;20017;-83
2021/03/16 01:39:05;;;;;;;26.07;3.77;;;;;;;;;;5073351;28;20055;-83
2021/03/16 01:41:30;;;;;;;28.87;3.63;;;;;;;;;;5072387;28;20028;-83
2021/03/16 01:43:55;;;;;;;27.07;2.70;;;;;;;;;;5073320;28;20021;-83
2021/03/16 01:46:21;;;;;;;25.17;2.50;;;;;;;;;;5074935;28;20027;-83
2021/03/16 01:48:46;;;;;;;23.03;2.50;;;;;;;;;;5073373;28;20020;-83
2021/03/16 01:51:11;;;;;;;25.17;2.40;;;;;;;;;;5074519;28;20521;-82
2021/03/16 01:53:37;;;;;;;19.53;2.50;;;;;;;;;;5073109;28;20028;-82
2021/03/16 01:56:03;;;;;;;22.03;2.13;;;;;;;;;;5073088;28;20020;-82
2021/03/16 01:58:28;;;;;;;31.87;2.80;;;;;;;;;;5072929;28;20043;-83
2021/03/16 02:00:54;;;;;;;32.37;3.50;;;;;;;;;;5072661;28;20009;-83
2021/03/16 02:03:19;;;;;;;29.77;3.17;;;;;;;;;;5074156;28;20096;-82
2021/03/16 02:05:44;;;;;;;22.63;2.40;;;;;;;;;;5072789;28;20016;-83
2021/03/16 02:08:14;;;;;;;26.03;2.13;;;;;;;;;;5074293;28;20475;-83
2021/03/16 02:10:46;;;;;;;22.37;2.40;;;;;;;;;;5073967;28;20112;-83
2021/03/16 02:13:11;;;;;;;;;;;;;;;;;;5073033;28;20040;-82
2021/03/16 02:15:38;;;;;;;24.17;2.23;;;;;;;;;;5072487;28;19919;-83
2021/03/16 02:18:07;;;;;;;35.97;3.27;;;;;;;;;;5072624;28;20267;-83
2021/03/16 02:20:45;;;;;;;18.93;2.33;;;;;;;;;;5072469;28;20020;-82
2021/03/16 02:23:14;;;;;;;21.10;2.73;;;;;;;;;;5072743;28;20372;-83
2021/03/16 02:25:39;;;;;;;34.83;2.70;;;;;;;;;;5073857;28;20108;-83
2021/03/16 02:28:07;;;;;;;23.40;2.66;;;;;;;;;;5072475;28;20130;-83
2021/03/16 02:30:33;;;;;;;24.87;2.53;;;;;;;;;;5072034;28;20020;-83
2021/03/16 02:32:59;;;;;;;18.73;2.47;;;;;;;;;;5072622;28;20468;-83
2021/03/16 02:35:24;;;;;;;22.87;2.33;;;;;;;;;;5073297;28;20017;-83
2021/03/16 02:37:51;;;;;;;30.20;2.87;;;;;;;;;;5072147;28;20060;-83
2021/03/16 02:40:18;;;;;;;37.10;2.70;;;;;;;;;;5071872;28;20012;-83
2021/03/16 02:42:43;;;;;;;26.13;2.83;;;;;;;;;;5071989;28;20020;-83
2021/03/16 02:45:09;;;;;;;24.30;2.00;;;;;;;;;;5071975;28;20202;-83
2021/03/16 02:47:35;;;;;;;22.23;1.83;;;;;;;;;;5071676;28;20062;-83
2021/03/16 02:50:01;;;;;;;20.27;2.30;;;;;;;;;;5071877;28;20028;-83
2021/03/16 02:52:26;;;;;;;15.13;2.37;;;;;;;;;;5071751;28;20386;-83
2021/03/16 02:54:52;;;;;;;27.37;2.93;;;;;;;;;;5071915;28;20073;-83
2021/03/16 02:57:18;;;;;;;22.53;2.17;;;;;;;;;;5073233;28;20463;-82
2021/03/16 02:59:44;;;;;;;28.30;1.90;;;;;;;;;;5071721;28;20094;-83
2021/03/16 03:02:10;;;;;;;27.47;2.40;;;;;;;;;;5071698;28;20625;-83
2021/03/16 03:04:35;;;;;;;20.67;2.10;;;;;;;;;;5071998;28;20120;-83
2021/03/16 03:07:01;;;;;;;24.63;2.10;;;;;;;;;;5071683;28;20456;-83
2021/03/16 03:09:28;;;;;;;31.70;2.63;;;;;;;;;;5071428;28;20024;-83
2021/03/16 03:11:53;;;;;;;14.80;2.13;;;;;;;;;;5071363;28;20056;-83
2021/03/16 03:14:18;;;;;;;20.67;1.70;;;;;;;;;;5071529;28;20040;-83
2021/03/16 03:16:44;;;;;;;17.83;1.97;;;;;;;;;;5071297;28;20039;-83
2021/03/16 03:19:09;;;;;;;28.20;2.47;;;;;;;;;;5072506;28;20028;-83
2021/03/16 03:21:40;;;;;;;25.60;2.17;;;;;;;;;;5071283;28;20017;-82
2021/03/16 03:24:07;;;;;;;18.83;2.40;;;;;;;;;;5071218;28;20480;-83
2021/03/16 03:26:43;;;;;;;22.53;2.00;;;;;;;;;;5065223;28;20017;-83
2021/03/16 03:29:10;;;;;;;14.67;1.87;;;;;;;;;;5072079;28;20402;-82
2021/03/16 03:31:35;;;;;;;26.73;2.30;;;;;;;;;;5070975;28;20016;-83
2021/03/16 03:34:01;;;;;;;23.67;2.23;;;;;;;;;;5072546;28;20353;-83
2021/03/16 03:36:26;;;;;;;19.27;1.83;;;;;;;;;;5070854;28;20021;-83
2021/03/16 03:38:53;;;;;;;24.20;2.10;;;;;;;;;;5071125;28;20458;-83
2021/03/16 03:41:18;;;;;;;14.63;1.80;;;;;;;;;;5071009;28;20027;-83
2021/03/16 03:43:44;;;;;;;16.63;2.17;;;;;;;;;;5071010;28;20047;-83
2021/03/16 03:46:10;;;;;;;14.87;1.60;;;;;;;;;;5072556;28;20013;-83
2021/03/16 03:48:35;;;;;;;22.73;1.93;;;;;;;;;;5071737;28;20031;-83
2021/03/16 03:51:03;;;;;;;22.57;2.37;;;;;;;;;;5071514;28;20012;-83
2021/03/16 03:53:28;;;;;;;25.37;1.93;;;;;;;;;;5071012;28;20024;-83
2021/03/16 03:55:54;;;;;;;15.07;1.67;;;;;;;;;;5070429;28;20027;-83
2021/03/16 03:58:19;;;;;;;17.80;1.70;;;;;;;;;;5071115;28;20103;-83
2021/03/16 04:00:46;;;;;;;9.13;1.40;;;;;;;;;;5070592;28;20044;-83
2021/03/16 04:03:11;;;;;;;14.20;1.63;;;;;;;;;;5071025;28;20016;-83
2021/03/16 04:05:37;;;;;;;9.03;1.40;;;;;;;;;;5070901;28;20020;-83
2021/03/16 04:08:03;;;;;;;17.40;1.63;;;;;;;;;;5072276;28;20017;-83
2021/03/16 04:10:28;;;;;;;23.70;1.90;;;;;;;;;;5070670;28;20360;-83
2021/03/16 04:12:54;;;;;;;14.27;1.63;;;;;;;;;;5070569;28;20032;-83
2021/03/16 04:15:20;;;;;;;11.60;1.33;;;;;;;;;;5072163;28;20024;-83
2021/03/16 04:17:46;;;;;;;12.43;1.70;;;;;;;;;;5070524;28;20024;-83
2021/03/16 04:20:12;;;;;;;15.37;1.80;;;;;;;;;;5071868;28;20476;-83
2021/03/16 04:22:37;;;;;;;21.00;2.93;;;;;;;;;;5071827;28;20024;-83
2021/03/16 04:25:03;;;;;;;22.93;1.70;;;;;;;;;;5070445;28;20012;-83
2021/03/16 04:27:29;;;;;;;13.67;1.30;;;;;;;;;;5070348;28;20025;-82
2021/03/16 04:29:54;;;;;;;19.70;1.80;;;;;;;;;;5071651;28;20063;-83
2021/03/16 04:32:19;;;;;;;18.73;2.27;;;;;;;;;;5071409;28;20067;-83
2021/03/16 04:34:44;;;;;;;17.37;1.57;;;;;;;;;;5070230;28;20227;-83
2021/03/16 04:37:10;;;;;;;16.70;1.50;;;;;;;;;;5070174;28;20021;-83
2021/03/16 04:39:35;;;;;;;15.37;1.43;;;;;;;;;;5070294;28;20055;-83
2021/03/16 04:42:01;;;;;;;17.60;1.73;;;;;;;;;;5070276;28;20062;-82
2021/03/16 04:44:26;;;;;;;13.40;1.50;;;;;;;;;;5070508;28;20058;-83
2021/03/16 04:46:51;;;;;;;15.80;1.60;;;;;;;;;;5070125;28;20016;-83
2021/03/16 04:49:16;;;;;;;12.67;1.63;;;;;;;;;;5070449;28;20024;-83
2021/03/16 04:51:41;;;;;;;17.83;1.70;;;;;;;;;;5071525;28;20032;-83
2021/03/16 04:54:07;;;;;;;18.70;1.70;;;;;;;;;;5070285;28;20433;-83
2021/03/16 04:56:33;;;;;;;11.97;1.43;;;;;;;;;;5070179;28;20016;-83
2021/03/16 04:58:58;;;;;;;16.50;1.93;;;;;;;;;;5069928;28;20077;-83
2021/03/16 05:01:24;;;;;;;20.30;2.03;;;;;;;;;;5071003;28;20096;-83
2021/03/16 05:03:49;;;;;;;16.90;1.90;;;;;;;;;;5074601;28;20092;-83
2021/03/16 05:06:14;;;;;;;10.00;1.20;;;;;;;;;;5075357;28;20029;-83
2021/03/16 05:08:39;;;;;;;8.87;1.20;;;;;;;;;;5074202;28;20017;-83
2021/03/16 05:11:05;;;;;;;15.07;1.57;;;;;;;;;;5073821;28;20016;-83
2021/03/16 05:13:30;;;;;;;12.13;1.53;;;;;;;;;;5073766;28;20060;-83
2021/03/16 05:15:55;;;;;;;13.97;1.40;;;;;;;;;;5075118;28;20062;-83
2021/03/16 05:18:20;;;;;;;21.57;1.80;;;;;;;;;;5073723;28;20024;-82
2021/03/16 05:20:46;;;;;;;18.23;1.70;;;;;;;;;;5073491;28;20529;-83
2021/03/16 05:23:11;;;;;;;17.07;1.97;;;;;;;;;;5075048;28;20016;-83
2021/03/16 05:25:36;;;;;;;19.50;2.07;;;;;;;;;;5073238;28;20021;-83
2021/03/16 05:28:01;;;;;;;21.83;2.30;;;;;;;;;;5073656;28;20145;-83
2021/03/16 05:30:27;;;;;;;19.67;1.87;;;;;;;;;;5073709;28;20025;-83
2021/03/16 05:32:55;;;;;;;15.67;1.93;;;;;;;;;;5073276;28;20418;-83
2021/03/16 05:35:21;;;;;;;17.07;2.47;;;;;;;;;;5073303;28;20471;-83
2021/03/16 05:37:46;;;;;;;17.07;1.80;;;;;;;;;;5073588;28;20162;-83
2021/03/16 05:40:12;;;;;;;16.93;1.70;;;;;;;;;;5074645;28;20043;-83
2021/03/16 05:42:38;;;;;;;19.47;3.30;;;;;;;;;;5074835;28;20025;-83
2021/03/16 05:45:04;;;;;;;7.80;1.10;;;;;;;;;;5073143;28;20020;-82
2021/03/16 05:47:29;;;;;;;16.00;2.03;;;;;;;;;;5074705;28;20023;-83
2021/03/16 05:49:56;;;;;;;21.77;2.47;;;;;;;;;;5074139;28;20043;-83
2021/03/16 05:52:22;;;;;;;11.77;2.30;;;;;;;;;;5072769;28;20020;-83
2021/03/16 05:54:47;;;;;;;12.53;1.97;;;;;;;;;;5073129;28;20021;-83
2021/03/16 05:57:12;;;;;;;18.53;1.90;;;;;;;;;;5073114;28;20021;-83
2021/03/16 05:59:37;;;;;;;16.63;1.93;;;;;;;;;;5072981;28;20048;-83
2021/03/16 06:02:03;;;;;;;15.80;2.37;;;;;;;;;;5072690;28;20036;-83
2021/03/16 06:04:28;;;;;;;22.87;2.13;;;;;;;;;;5074248;28;20460;-83
2021/03/16 06:06:55;;;;;;;16.03;2.37;;;;;;;;;;5074197;28;20040;-83
2021/03/16 06:09:20;;;;;;;22.33;2.17;;;;;;;;;;5072929;28;20531;-83
2021/03/16 06:11:49;;;;;;;13.43;2.30;;;;;;;;;;5072733;28;20114;-83
2021/03/16 06:14:14;;;;;;;19.17;2.40;;;;;;;;;;5072298;28;20028;-83
2021/03/16 06:16:39;;;;;;;13.13;1.70;;;;;;;;;;5072468;28;20026;-83
2021/03/16 06:19:05;;;;;;;15.67;2.43;;;;;;;;;;5074098;28;20044;-82
2021/03/16 06:21:30;;;;;;;18.17;2.90;;;;;;;;;;5072585;28;20070;-83
2021/03/16 06:23:57;;;;;;;24.60;3.10;;;;;;;;;;5072738;28;20147;-83
2021/03/16 06:26:29;;;;;;;17.13;2.97;;;;;;;;;;5071865;28;20009;-83
2021/03/16 06:29:04;;;;;;;11.17;2.17;;;;;;;;;;5073892;28;20025;-83
2021/03/16 06:31:30;;;;;;;16.60;2.17;;;;;;;;;;5073995;28;20016;-83
2021/03/16 06:33:55;;;;;;;10.70;2.10;;;;;;;;;;5072575;28;20016;-83
2021/03/16 06:36:27;;;;;;;22.53;2.97;;;;;;;;;;5072358;28;20100;-83
2021/03/16 06:38:52;;;;;;;17.67;2.28;;;;;;;;;;5073621;28;20350;-83
2021/03/16 06:41:19;;;;;;;17.13;2.70;;;;;;;;;;5072614;28;20021;-83
2021/03/16 06:43:53;;;;;;;15.80;2.10;;;;;;;;;;5072579;28;20031;-83
2021/03/16 06:46:28;;;;;;;22.90;2.83;;;;;;;;;;5072422;28;20436;-83
2021/03/16 06:48:54;;;;;;;29.13;4.03;;;;;;;;;;5073812;28;20020;-83
2021/03/16 06:51:23;;;;;;;17.93;2.60;;;;;;;;;;5071944;28;20073;-83
2021/03/16 06:53:48;;;;;;;20.87;3.23;;;;;;;;;;5072100;28;20024;-83
2021/03/16 06:56:14;;;;;;;20.37;3.27;;;;;;;;;;5073770;28;20418;-83
2021/03/16 06:58:39;;;;;;;25.97;2.90;;;;;;;;;;5071950;28;20031;-83
2021/03/16 07:01:05;;;;;;;26.40;3.30;;;;;;;;;;5072320;28;20524;-83
2021/03/16 07:03:31;;;;;;;20.87;3.13;;;;;;;;;;5073037;28;20024;-84
2021/03/16 07:06:12;;;;;;;15.53;3.40;;;;;;;;;;5070473;28;20027;-84
2021/03/16 07:08:38;;;;;;;20.75;3.03;;;;;;;;;;5072012;28;20060;-83
2021/03/16 07:11:05;;;;;;;18.23;3.13;;;;;;;;;;5071950;28;20055;-84
2021/03/16 07:13:32;;;;;;;21.17;3.00;;;;;;;;;;5072461;28;20533;-84
2021/03/16 07:15:58;;;;;;;20.40;3.40;;;;;;;;;;5072677;28;20032;-83
2021/03/16 07:18:23;;;;;;;16.47;3.53;;;;;;;;;;5071597;28;20460;-83
2021/03/16 07:20:50;;;;;;;22.70;3.77;;;;;;;;;;5071719;28;20132;-84
2021/03/16 07:23:16;;;;;;;13.97;3.33;;;;;;;;;;5071602;28;20020;-84
2021/03/16 07:25:42;;;;;;;19.37;3.10;;;;;;;;;;5070647;28;20020;-84
2021/03/16 07:28:07;;;;;;;29.90;3.77;;;;;;;;;;5071539;28;20030;-84
2021/03/16 07:30:34;;;;;;;24.93;3.57;;;;;;;;;;5071339;28;20403;-84
2021/03/16 07:33:00;;;;;;;23.63;4.27;;;;;;;;;;5071078;28;20013;-84
2021/03/16 07:35:25;;;;;;;25.80;3.73;;;;;;;;;;5072930;28;20513;-84
2021/03/16 07:37:51;;;;;;;17.17;3.40;;;;;;;;;;5071360;28;20035;-83
2021/03/16 07:40:17;;;;;;;21.73;3.37;;;;;;;;;;5071141;28;20047;-83
2021/03/16 07:42:42;;;;;;;23.00;3.47;;;;;;;;;;5070115;28;20410;-84
2021/03/16 07:45:07;;;;;;;26.37;4.67;;;;;;;;;;5070178;28;20376;-83
2021/03/16 07:47:36;;;;;;;21.23;3.33;;;;;;;;;;5070800;28;20063;-83
2021/03/16 07:50:06;;;;;;;24.40;3.90;;;;;;;;;;5071380;28;20016;-84
2021/03/16 07:52:31;;;;;;;27.07;3.77;;;;;;;;;;5062588;28;20025;-83
2021/03/16 07:54:56;;;;;;;20.87;4.37;;;;;;;;;;5070295;28;20028;-83
2021/03/16 07:57:30;;;;;;;24.17;4.40;;;;;;;;;;5069859;28;20020;-83
2021/03/16 07:59:59;;;;;;;28.63;5.63;;;;;;;;;;5068833;28;20028;-83
2021/03/16 08:02:31;;;;;;;28.57;5.30;;;;;;;;;;5070228;28;20021;-84
2021/03/16 08:04:56;;;;;;;22.88;4.80;;;;;;;;;;5070238;28;20035;-83
2021/03/16 08:07:26;;;;;;;28.93;5.30;;;;;;;;;;5067953;28;20021;-83
2021/03/16 08:09:54;;;;;;;25.07;4.60;;;;;;;;;;5070595;28;20008;-83
2021/03/16 08:12:22;;;;;;;27.90;4.60;;;;;;;;;;5071121;28;20107;-83
2021/03/16 08:14:48;;;;;;;24.57;4.90;;;;;;;;;;5070330;28;20021;-84
2021/03/16 08:17:24;;;;;;;23.63;5.23;;;;;;;;;;5070869;28;20388;-83
2021/03/16 08:19:49;;;;;;;33.10;6.70;;;;;;;;;;5092311;28;20052;-83
2021/03/16 08:22:21;;;;;;;17.43;4.83;;;;;;;;;;5069539;28;20397;-83
2021/03/16 08:24:46;;;;;;;29.35;5.35;;;;;;;;;;5070546;28;20392;-84
2021/03/16 08:27:12;;;;;;;23.43;5.43;;;;;;;;;;5072014;28;20020;-84
2021/03/16 08:29:42;;;;;;;24.53;6.17;;;;;;;;;;5070763;28;20355;-83
2021/03/16 08:32:12;;;;;;;29.77;6.90;;;;;;;;;;5070708;28;20090;-84
2021/03/16 08:34:37;;;;;;;27.83;7.10;;;;;;;;;;5070434;28;20025;-84
2021/03/16 08:37:03;;;;;;;31.53;9.53;;;;;;;;;;5072303;28;20435;-83
2021/03/16 08:39:28;;;;;;;23.67;7.83;;;;;;;;;;5075844;28;20027;-83
2021/03/16 08:42:01;;;;;;;23.83;8.67;;;;;;;;;;5075875;28;20399;-84
2021/03/16 08:44:27;;;;;;;31.70;8.67;;;;;;;;;;5075539;28;20438;-84
2021/03/16 08:46:53;;;;;;;19.43;6.63;;;;;;;;;;5073509;28;20467;-83
2021/03/16 08:49:23;;;;;;;26.27;5.03;;;;;;;;;;5075764;28;20035;-84
2021/03/16 08:51:48;;;;;;;17.87;4.23;;;;;;;;;;5070739;28;20048;-84
2021/03/16 08:54:26;;;;;;;16.13;3.20;;;;;;;;;;5074005;28;20502;-84
2021/03/16 08:56:51;;;;;;;11.60;2.90;;;;;;;;;;5075056;28;20017;-84
2021/03/16 08:59:20;;;;;;;6.50;2.07;;;;;;;;;;5069388;28;20035;-84
2021/03/16 09:01:49;;;;;;;17.03;3.40;;;;;;;;;;5075654;28;20468;-84
2021/03/16 09:04:15;;;;;;;9.57;2.47;;;;;;;;;;5074047;28;20043;-84
2021/03/16 09:06:41;;;;;;;10.73;2.33;;;;;;;;;;5073743;28;20468;-84
2021/03/16 09:09:06;;;;;;;9.87;2.20;;;;;;;;;;5073970;28;20028;-84
2021/03/16 09:11:34;;;;;;;14.20;2.57;;;;;;;;;;5074135;28;20052;-84
2021/03/16 09:14:28;;;;;;;15.07;2.47;;;;;;;;;;5073968;28;20029;-84
2021/03/16 09:16:54;;;;;;;9.63;1.50;;;;;;;;;;5070282;28;20388;-84
2021/03/16 09:19:20;;;;;;;6.43;1.57;;;;;;;;;;5073950;28;20023;-84
2021/03/16 09:21:55;;;;;;;12.90;1.90;;;;;;;;;;5075184;28;20017;-84
2021/03/16 09:24:22;;;;;;;8.83;1.30;;;;;;;;;;5074793;28;20047;-84
2021/03/16 09:26:51;;;;;;;11.20;1.50;;;;;;;;;;5073532;28;20024;-84
2021/03/16 09:29:17;;;;;;;6.93;1.00;;;;;;;;;;5073306;28;20042;-84
2021/03/16 09:31:42;;;;;;;6.67;1.20;;;;;;;;;;5073808;28;20095;-84
2021/03/16 09:34:07;;;;;;;7.70;1.20;;;;;;;;;;5073842;28;20460;-84
2021/03/16 09:36:32;;;;;;;6.23;1.00;;;;;;;;;;5074398;28;20416;-83
2021/03/16 09:38:58;;;;;;;6.60;1.10;;;;;;;;;;5073356;28;20074;-84
2021/03/16 09:41:23;;;;;;;4.93;1.00;;;;;;;;;;5074823;28;20016;-84
2021/03/16 09:43:49;;;;;;;10.40;1.60;;;;;;;;;;5072927;28;20020;-84
2021/03/16 09:46:14;;;;;;;10.00;1.10;;;;;;;;;;5072872;28;20431;-84
2021/03/16 09:48:40;;;;;;;11.50;1.27;;;;;;;;;;5072194;28;20035;-83
2021/03/16 09:51:16;;;;;;;12.57;1.50;;;;;;;;;;5073181;28;20718;-84
2021/03/16 09:53:49;;;;;;;8.07;0.80;;;;;;;;;;5072473;28;20023;-84
2021/03/16 09:56:14;;;;;;;3.65;0.60;;;;;;;;;;5073149;28;20036;-83
2021/03/16 09:58:46;;;;;;;5.20;0.83;;;;;;;;;;5074435;28;20022;-84
2021/03/16 10:01:11;;;;;;;4.40;0.70;;;;;;;;;;5074651;28;20357;-84
2021/03/16 10:03:36;;;;;;;7.93;1.30;;;;;;;;;;5073133;28;20029;-84
2021/03/16 10:06:05;;;;;;;10.93;1.50;;;;;;;;;;5072945;28;20016;-84
2021/03/16 10:08:31;;;;;;;5.83;1.20;;;;;;;;;;5074406;28;20413;-84
2021/03/16 10:10:56;;;;;;;4.37;0.97;;;;;;;;;;5073073;28;20052;-84
2021/03/16 10:13:51;;;;;;;3.47;0.70;;;;;;;;;;5071309;28;20020;-84
2021/03/16 10:16:16;;;;;;;8.27;0.90;;;;;;;;;;5066961;28;20039;-84
2021/03/16 10:18:44;;;;;;;8.10;1.00;;;;;;;;;;5073193;28;20447;-84
2021/03/16 10:21:09;;;;;;;12.43;2.07;;;;;;;;;;5069784;28;20066;-84
2021/03/16 10:23:35;;;;;;;10.77;2.13;;;;;;;;;;5072881;28;20672;-84
2021/03/16 10:26:01;;;;;;;11.13;2.90;;;;;;;;;;5072801;28;20537;-84
2021/03/16 10:28:43;;;;;;;9.73;3.33;;;;;;;;;;5074249;28;20027;-84
2021/03/16 10:31:16;;;;;;;11.23;2.77;;;;;;;;;;5072582;28;20060;-84
2021/03/16 10:33:41;;;;;;;9.17;3.03;;;;;;;;;;5072542;28;20022;-84
2021/03/16 10:36:07;;;;;;;8.67;1.80;;;;;;;;;;5073816;28;20447;-84
2021/03/16 10:38:32;;;;;;;9.70;2.17;;;;;;;;;;5072407;28;20325;-85
2021/03/16 10:40:58;;;;;;;10.27;2.47;;;;;;;;;;5073736;28;20332;-84
2021/03/16 10:43:23;;;;;;;10.00;2.40;;;;;;;;;;5072550;28;20013;-83
2021/03/16 10:45:48;;;;;;;12.17;2.17;;;;;;;;;;5072179;28;20022;-84
2021/03/16 10:48:13;;;;;;;10.83;2.10;;;;;;;;;;5072685;28;20104;-84
2021/03/16 10:50:39;;;;;;;7.10;2.63;;;;;;;;;;5071987;28;20028;-84
2021/03/16 10:53:04;;;;;;;9.17;2.60;;;;;;;;;;5072158;28;20025;-83
2021/03/16 10:55:29;;;;;;;13.83;2.90;;;;;;;;;;5072292;28;20047;-84
2021/03/16 10:57:54;;;;;;;4.57;2.17;;;;;;;;;;5072048;28;20494;-83
2021/03/16 11:00:20;;;;;;;10.53;2.70;;;;;;;;;;5073077;28;20017;-83
2021/03/16 11:02:45;;;;;;;9.50;3.00;;;;;;;;;;5071579;28;20418;-83
2021/03/16 11:05:11;;;;;;;5.20;3.10;;;;;;;;;;5071970;28;20031;-83
2021/03/16 11:07:36;;;;;;;6.20;3.20;;;;;;;;;;5071962;28;20127;-83
2021/03/16 11:10:02;;;;;;;8.37;3.53;;;;;;;;;;5073279;28;20103;-82
2021/03/16 11:12:27;;;;;;;10.47;4.20;;;;;;;;;;5071529;28;20082;-83
2021/03/16 11:14:52;;;;;;;15.43;4.40;;;;;;;;;;5071226;28;20024;-83
2021/03/16 11:17:18;;;;;;;10.33;4.13;;;;;;;;;;5071652;28;20111;-83
2021/03/16 11:19:43;;;;;;;10.43;3.53;;;;;;;;;;5068789;28;20013;-83
2021/03/16 11:22:08;;;;;;;13.50;5.07;;;;;;;;;;5072807;28;20054;-83
2021/03/16 11:24:33;;;;;;;12.80;4.83;;;;;;;;;;5072527;28;20103;-83
2021/03/16 11:26:59;;;;;;;11.70;4.70;;;;;;;;;;5071305;28;20020;-84
2021/03/16 11:29:24;;;;;;;11.83;4.60;;;;;;;;;;5070790;28;20021;-83
2021/03/16 11:31:49;;;;;;;10.07;5.00;;;;;;;;;;5070974;28;20025;-83
2021/03/16 11:34:15;;;;;;;10.10;4.87;;;;;;;;;;5071453;28;20028;-83
2021/03/16 11:36:40;;;;;;;10.90;4.70;;;;;;;;;;5071868;28;20031;-83
2021/03/16 11:39:05;;;;;;;9.37;4.50;;;;;;;;;;5071234;28;20472;-83
2021/03/16 11:41:30;;;;;;;8.83;5.10;;;;;;;;;;5070908;28;20021;-83
2021/03/16 11:43:56;;;;;;;11.07;5.40;;;;;;;;;;5071938;28;20048;-83
2021/03/16 11:46:21;;;;;;;9.57;5.07;;;;;;;;;;5071227;28;20035;-84
2021/03/16 11:48:46;;;;;;;12.77;5.43;;;;;;;;;;5070886;28;20024;-83
2021/03/16 11:51:12;;;;;;;10.53;5.10;;;;;;;;;;5070607;28;20059;-83
2021/03/16 11:53:37;;;;;;;9.93;5.83;;;;;;;;;;5070588;28;20430;-82
2021/03/16 11:56:02;;;;;;;9.07;4.40;;;;;;;;;;5071167;28;20017;-82
2021/03/16 11:58:28;;;;;;;9.87;4.20;;;;;;;;;;5071976;28;20016;-82
2021/03/16 12:00:53;;;;;;;6.47;2.80;;;;;;;;;;5070821;28;20059;-83
2021/03/16 12:03:19;;;;;;;9.07;3.10;;;;;;;;;;5070946;28;20151;-83
2021/03/16 12:05:44;;;;;;;5.17;2.23;;;;;;;;;;5070784;28;20476;-82
2021/03/16 12:08:09;;;;;;;5.37;1.70;;;;;;;;;;5072227;28;20103;-83
2021/03/16 12:10:34;;;;;;;8.37;1.83;;;;;;;;;;5071087;28;20021;-82
2021/03/16 12:13:00;;;;;;;2.50;1.13;;;;;;;;;;5070725;28;20024;-82
2021/03/16 12:15:25;;;;;;;7.07;1.50;;;;;;;;;;5071669;28;20166;-83
2021/03/16 12:17:50;;;;;;;5.63;1.70;;;;;;;;;;5071051;28;20024;-82
2021/03/16 12:20:15;;;;;;;3.47;1.63;;;;;;;;;;5066219;28;20021;-83
2021/03/16 12:22:41;;;;;;;6.90;2.13;;;;;;;;;;5072043;28;20015;-82
2021/03/16 12:25:07;;;;;;;3.03;2.07;;;;;;;;;;5071529;28;20028;-82
2021/03/16 12:27:32;;;;;;;4.47;1.80;;;;;;;;;;5067932;28;20021;-82
2021/03/16 12:29:57;;;;;;;4.53;1.70;;;;;;;;;;5069215;28;20551;-82
2021/03/16 12:32:22;;;;;;;3.70;1.80;;;;;;;;;;5069852;28;20016;-82
2021/03/16 12:34:50;;;;;;;4.67;2.27;;;;;;;;;;5070737;28;20020;-82
2021/03/16 12:37:15;;;;;;;7.57;2.80;;;;;;;;;;5071890;28;20021;-82
2021/03/16 12:39:40;;;;;;;7.87;2.73;;;;;;;;;;5070414;28;20035;-82
2021/03/16 12:42:05;;;;;;;7.57;2.83;;;;;;;;;;5070233;28;20188;-82
2021/03/16 12:44:31;;;;;;;6.60;2.90;;;;;;;;;;5071481;28;20070;-83
2021/03/16 12:46:57;;;;;;;4.97;3.00;;;;;;;;;;5063577;28;20017;-82
2021/03/16 12:49:22;;;;;;;9.33;2.53;;;;;;;;;;5071692;28;20020;-83
2021/03/16 12:51:47;;;;;;;4.50;2.97;;;;;;;;;;5070462;28;20024;-82
2021/03/16 12:54:13;;;;;;;3.93;2.53;;;;;;;;;;5070016;28;20388;-82
2021/03/16 12:56:38;;;;;;;6.87;2.80;;;;;;;;;;5070135;28;20024;-83
2021/03/16 12:59:03;;;;;;;3.60;2.30;;;;;;;;;;5071549;28;20028;-82
2021/03/16 13:01:29;;;;;;;3.63;2.80;;;;;;;;;;5070075;28;20012;-82
2021/03/16 13:03:54;;;;;;;4.33;2.60;;;;;;;;;;5069294;28;20472;-83
2021/03/16 13:06:19;;;;;;;4.07;2.70;;;;;;;;;;5070269;28;20067;-83
2021/03/16 13:08:45;;;;;;;5.07;3.00;;;;;;;;;;5071825;28;20038;-83
2021/03/16 13:11:10;;;;;;;4.23;2.80;;;;;;;;;;5069991;28;20021;-82
2021/03/16 13:13:36;;;;;;;4.50;3.07;;;;;;;;;;5067521;28;20037;-83
2021/03/16 13:16:01;;;;;;;5.77;3.03;;;;;;;;;;5069515;28;20059;-83
2021/03/16 13:18:26;;;;;;;4.80;2.40;;;;;;;;;;5068594;28;20062;-83
2021/03/16 13:20:51;;;;;;;4.03;2.63;;;;;;;;;;5070073;28;20227;-83
2021/03/16 13:23:16;;;;;;;4.80;3.20;;;;;;;;;;5070827;28;20039;-82
2021/03/16 13:25:41;;;;;;;6.23;2.93;;;;;;;;;;5073859;28;20017;-82
2021/03/16 13:28:07;;;;;;;5.77;3.37;;;;;;;;;;5073798;28;20430;-82
2021/03/16 13:30:32;;;;;;;4.87;3.17;;;;;;;;;;5074410;28;20052;-83
2021/03/16 13:32:58;;;;;;;7.77;3.57;;;;;;;;;;5074063;28;20024;-82
2021/03/16 13:35:23;;;;;;;6.57;3.30;;;;;;;;;;5073380;28;20058;-82
2021/03/16 13:37:49;;;;;;;5.67;3.57;;;;;;;;;;5072928;28;20075;-82
2021/03/16 13:40:14;;;;;;;5.63;3.43;;;;;;;;;;5073906;28;20013;-82
2021/03/16 13:42:39;;;;;;;3.97;3.13;;;;;;;;;;5072687;28;20411;-82
2021/03/16 13:45:05;;;;;;;4.60;3.37;;;;;;;;;;5068700;28;20043;-82
2021/03/16 13:47:30;;;;;;;7.27;3.87;;;;;;;;;;5074471;28;20043;-83
2021/03/16 13:49:55;;;;;;;5.47;3.40;;;;;;;;;;5073220;28;20123;-84
2021/03/16 13:52:20;;;;;;;4.70;3.33;;;;;;;;;;5073433;28;20103;-84
2021/03/16 13:54:46;;;;;;;7.20;3.63;;;;;;;;;;5074993;28;20028;-86
2021/03/16 13:57:11;;;;;;;5.57;3.13;;;;;;;;;;5071886;28;20031;-86
2021/03/16 13:59:36;;;;;;;5.67;3.67;;;;;;;;;;5095394;28;20032;-83
2021/03/16 14:02:01;;;;;;;6.13;3.80;;;;;;;;;;5073499;28;20020;-84
2021/03/16 14:04:26;;;;;;;5.60;3.90;;;;;;;;;;5073543;28;20020;-85
2021/03/16 14:06:51;;;;;;;7.70;3.67;;;;;;;;;;5072606;28;20099;-86
2021/03/16 14:09:17;;;;;;;7.60;4.20;;;;;;;;;;5073357;28;20112;-85
2021/03/16 14:11:42;;;;;;;7.30;4.00;;;;;;;;;;5072918;28;20028;-83
2021/03/16 14:14:07;;;;;;;4.97;3.53;;;;;;;;;;5073373;28;20417;-83
2021/03/16 14:16:32;;;;;;;7.70;4.30;;;;;;;;;;5074207;28;20021;-85
2021/03/16 14:18:58;;;;;;;7.57;4.27;;;;;;;;;;5072893;28;20518;-84
2021/03/16 14:21:25;;;;;;;7.77;4.50;;;;;;;;;;5073580;28;20020;-84
2021/03/16 14:23:51;;;;;;;7.20;4.10;;;;;;;;;;5073179;28;20427;-85
2021/03/16 14:26:16;;;;;;;8.10;4.83;;;;;;;;;;5074065;28;20044;-84
2021/03/16 14:28:41;;;;;;;6.50;4.50;;;;;;;;;;5074437;28;20312;-85